Terminal Aerodrome Forecast
Issued by NWS Paducah, KY

Home | Current Version | Previous Version | Text Only | Print | Product List | Glossary On
Versions: 1 2 3 4 5 6 7 8 9 10 11 12 13 14 15 16 17 18 19 20
127
FTUS43 KPAH 221632 AAA
TAFEVV
TAF AMD
KEVV 221632Z 2217/2312 28009KT P6SM BKN035
     FM221730 32009KT P6SM SCT040
     FM221900 VRB03KT P6SM SCT050
     FM230100 22010KT P6SM SCT200
     FM230900 23009KT P6SM VCTS SCT050CB=

USA.gov is the U.S. government's official web portal to all federal, state and local government web resources and services.